Flight Track Log - Related Links

Times and Time Zones

All times are in EDT time to prevent confusion due to time zone crossing. See the N68ER flight status page for this flight to view local times or setup timezone preferences in your user account.

Time Position Orientation Groundspeed Altitude Reporting Facility
EDT Latitude Longitude Course Direction KTS MPH feet Rate Location/Type
Sun 11:47:36 AM 33.6333 -111.9000 343° North 147 169 2,200  Level Phoenix TRACON
Sun 11:48:47 AM 33.6706 -111.9139 343° North 185 213 4,500 1,714 Climbing Albuquerque Center
Sun 11:49:49 AM 33.6883 -111.9678 292° West 196 226 6,000 1,415 Climbing Albuquerque Center
Sun 11:50:50 AM 33.7494 -111.9336 25° Northeast 245 282 7,400 1,561 Climbing Albuquerque Center
Sun 11:51:52 AM 33.8117 -111.8908 30° Northeast 255 293 9,200 1,805 Climbing Albuquerque Center
Sun 11:52:53 AM 33.8758 -111.8481 29° Northeast 262 302 11,100 2,049 Climbing Albuquerque Center
Sun 11:53:55 AM 33.9506 -111.7975 29° Northeast 260 299 13,400 1,984 Climbing Albuquerque Center
Sun 11:54:57 AM 34.0094 -111.7578 29° Northeast 261 300 15,200 1,902 Climbing Albuquerque Center
Sun 11:55:58 AM 34.0714 -111.7222 25° Northeast 256 295 17,300 1,902 Climbing Albuquerque Center
Sun 11:57:00 AM 34.1397 -111.6944 19° North 256 295 19,100 1,951 Climbing Albuquerque Center
Sun 11:58:01 AM 34.2192 -111.6631 18° North 254 292 21,300 1,951 Climbing Albuquerque Center
Sun 11:59:03 AM 34.2878 -111.6369 17° North 256 295 23,100 1,756 Climbing Albuquerque Center
Sun 12:00:04 PM 34.3561 -111.6094 18° North 259 298 24,900 1,707 Climbing Albuquerque Center
Sun 12:01:06 PM 34.4225 -111.5825 19° North 254 292 26,600 1,597 Climbing Albuquerque Center
Sun 12:02:08 PM 34.4928 -111.5783 North 256 295 28,200 1,171 Climbing Albuquerque Center
Sun 12:03:09 PM 34.5653 -111.5817 358° North 258 297 29,000 390 Climbing Albuquerque Center
Sun 12:04:11 PM 34.6467 -111.5861 357° North 284 327 29,000  Level Albuquerque Center
Sun 12:05:12 PM 34.7542 -111.5925 357° North 315 362 29,000  Level Albuquerque Center
Sun 12:06:14 PM 34.8469 -111.5978 357° North 328 377 29,000 97 Level Albuquerque Center
Sun 12:07:16 PM 34.9414 -111.6039 357° North 336 387 29,200 732 Climbing Albuquerque Center
Sun 12:08:17 PM 35.0322 -111.6094 357° North 331 381 30,500 1,317 Climbing Albuquerque Center
Sun 12:09:19 PM 35.1158 -111.6142 357° North 310 357 31,900 1,317 Climbing Albuquerque Center
Sun 12:10:20 PM 35.1944 -111.6186 357° North 292 336 33,200 1,268 Climbing Albuquerque Center
Sun 12:11:22 PM 35.2714 -111.6231 357° North 280 322 34,500 1,258 Climbing Albuquerque Center
Sun 12:12:24 PM 35.3511 -111.6281 357° North 268 308 35,800 732 Climbing Albuquerque Center
Sun 12:13:25 PM 35.4228 -111.6328 357° North 261 300 36,000 98 Climbing Albuquerque Center
Sun 12:14:27 PM 35.5019 -111.6361 358° North 277 319 36,000  Level Albuquerque Center
Sun 12:15:29 PM 35.6014 -111.6422 357° North 295 339 36,000  Level Albuquerque Center
Sun 12:16:30 PM 35.6872 -111.6472 357° North 306 352 36,000  Level Albuquerque Center
Sun 12:16:48 PM 35.7039 -111.6481 358° North 307 353 36,000  Level Los Angeles Center
Sun 12:17:49 PM 35.7911 -111.6533 357° North 313 360 36,000  Level Los Angeles Center
Sun 12:18:51 PM 35.8967 -111.6597 357° North 317 365 36,000  Level Los Angeles Center
Sun 12:19:57 PM 35.9819 -111.6642 358° North 320 368 36,000  Level Denver Center
Sun 12:20:59 PM 36.0897 -111.6719 357° North 323 372 36,000  Level Denver Center
Sun 12:22:01 PM 36.1797 -111.6767 358° North 324 373 36,000  Level Denver Center
Sun 12:23:15 PM 36.2692 -111.6836 356° North 324 373 36,000  Level Denver Center
Sun 12:24:18 PM 36.3781 -111.6886 358° North 326 375 36,000  Level Denver Center
Sun 12:25:20 PM 36.4694 -111.6953 357° North 328 377 36,000  Level Denver Center
Sun 12:26:22 PM 36.5575 -111.7000 358° North 321 369 36,000  Level Denver Center
Sun 12:27:24 PM 36.6636 -111.7067 357° North 319 367 36,000  Level Denver Center
Sun 12:28:26 PM 36.7528 -111.7117 357° North 321 369 36,000  Level Denver Center
Sun 12:29:28 PM 36.8417 -111.7175 357° North 320 368 36,000  Level Denver Center
Sun 12:30:42 PM 36.9325 -111.7225 357° North 325 374 36,000  Level Denver Center
Sun 12:31:44 PM 37.0222 -111.7275 357° North 324 373 36,000  Level Denver Center
Sun 12:32:46 PM 37.1483 -111.7342 358° North 325 374 36,000  Level Denver Center
Sun 12:33:48 PM 37.2381 -111.7400 357° North 325 374 36,000  Level Denver Center
Sun 12:35:02 PM 37.3228 -111.7472 356° North 312 359 36,000  Level Denver Center
Sun 12:36:05 PM 37.4306 -111.7542 357° North 323 372 36,000  Level Denver Center
Sun 12:38:02 PM 37.6092 -111.7650 357° North 322 371 36,000  Level Los Angeles Center
Sun 12:38:21 PM 37.6436 -111.7675 357° North 322 371 36,000  Level Salt Lake Center
Sun 12:39:22 PM 37.7328 -111.7739 357° North 323 372 36,000  Level Salt Lake Center
Sun 12:40:24 PM 37.8222 -111.7797 357° North 323 372 36,000  Level Salt Lake Center
Sun 12:41:15 PM 37.8928 -111.7850 357° North 321 369 36,000  Level Denver Center
Sun 12:42:17 PM 37.9828 -111.7903 357° North 324 373 36,000  Level Denver Center
Sun 12:43:19 PM 38.0728 -111.7947 358° North 326 375 36,000  Level Denver Center
Sun 12:44:30 PM 38.1819 -111.8039 356° North 326 375 36,000  Level Salt Lake Center
Sun 12:45:32 PM 38.2886 -111.8106 357° North 322 371 36,000  Level Salt Lake Center
Sun 12:46:34 PM 38.3792 -111.8175 357° North 325 374 36,000  Level Salt Lake Center
Sun 12:47:35 PM 38.4686 -111.8233 357° North 324 373 36,000  Level Salt Lake Center
Sun 12:48:37 PM 38.5583 -111.8294 357° North 325 374 36,000  Level Salt Lake Center
Sun 12:49:38 PM 38.6481 -111.8353 357° North 324 373 36,000  Level Salt Lake Center
Sun 12:50:40 PM 38.7381 -111.8417 357° North 325 374 36,000  Level Salt Lake Center
Sun 12:51:41 PM 38.8286 -111.8472 357° North 326 375 36,000  Level Salt Lake Center
Sun 12:52:43 PM 38.9186 -111.8522 358° North 326 375 36,000  Level Salt Lake Center
Sun 12:53:44 PM 39.0275 -111.8603 357° North 326 375 36,000  Level Salt Lake Center
Sun 12:54:46 PM 39.1192 -111.8653 358° North 328 377 36,000  Level Salt Lake Center
Sun 12:55:47 PM 39.2103 -111.8708 357° North 328 377 36,000  Level Salt Lake Center
Sun 12:56:49 PM 39.3064 -111.8789 356° North 329 379 36,000  Level Salt Lake Center
Sun 12:57:50 PM 39.3981 -111.8847 357° North 330 380 36,000  Level Salt Lake Center
Sun 12:58:52 PM 39.4900 -111.8908 357° North 332 382 36,000  Level Salt Lake Center
Sun 12:59:53 PM 39.5828 -111.8961 357° North 333 383 36,000  Level Salt Lake Center
Sun 01:00:55 PM 39.6753 -111.9025 357° North 333 383 36,000  Level Salt Lake Center
Sun 01:01:57 PM 39.7689 -111.9094 357° North 336 387 36,000  Level Salt Lake Center
Sun 01:02:58 PM 39.8622 -111.9139 358° North 335 386 36,000  Level Salt Lake Center
Sun 01:04:00 PM 39.9753 -111.9214 357° North 339 390 36,000  Level Salt Lake Center
Sun 01:05:01 PM 40.0694 -111.9283 357° North 339 390 36,000  Level Salt Lake Center
Sun 01:06:03 PM 40.1636 -111.9356 357° North 339 390 36,000  Level Salt Lake Center
Sun 01:07:04 PM 40.2586 -111.9411 357° North 341 392 36,000  Level Salt Lake Center
Sun 01:08:06 PM 40.3519 -111.9478 357° North 338 389 36,000  Level Salt Lake Center
Sun 01:09:07 PM 40.4467 -111.9653 352° North 343 395 36,000  Level Salt Lake Center
Sun 01:10:09 PM 40.5394 -111.9928 347° North 342 394 36,000  Level Salt Lake Center
Sun 01:11:11 PM 40.6319 -112.0203 347° North 339 390 36,000  Level Salt Lake Center
Sun 01:12:12 PM 40.7431 -112.0539 347° North 342 394 36,000  Level Salt Lake Center
Sun 01:13:14 PM 40.8381 -112.0836 347° North 343 395 36,000  Level Salt Lake Center
Sun 01:14:16 PM 40.9331 -112.1108 348° North 344 396 36,000  Level Salt Lake Center
Sun 01:15:17 PM 41.0272 -112.1386 347° North 343 395 36,000  Level Salt Lake Center
Sun 01:16:19 PM 41.1214 -112.1669 347° North 342 394 36,000  Level Salt Lake Center
Sun 01:17:20 PM 41.2147 -112.1942 348° North 342 394 36,000  Level Salt Lake Center
Sun 01:18:22 PM 41.3081 -112.2219 347° North 341 392 36,000  Level Salt Lake Center
Sun 01:19:23 PM 41.4011 -112.2503 347° North 341 392 36,000  Level Salt Lake Center
Sun 01:20:25 PM 41.4944 -112.2789 347° North 342 394 36,000  Level Salt Lake Center
Sun 01:21:27 PM 41.5875 -112.3069 347° North 342 394 36,000  Level Salt Lake Center
Sun 01:22:28 PM 41.6994 -112.3422 347° North 343 395 36,000  Level Salt Lake Center
Sun 01:23:30 PM 41.7914 -112.3694 348° North 339 390 36,000  Level Salt Lake Center
Sun 01:24:31 PM 41.8847 -112.3994 347° North 341 392 36,000  Level Salt Lake Center
Sun 01:25:33 PM 41.9794 -112.4278 347° North 346 398 36,000  Level Salt Lake Center
Sun 01:26:34 PM 42.0731 -112.4572 347° North 346 398 36,000  Level Salt Lake Center
Sun 01:27:36 PM 42.1669 -112.4853 348° North 347 399 36,000  Level Salt Lake Center
Sun 01:28:37 PM 42.2600 -112.5136 347° North 344 396 36,000  Level Salt Lake Center
Sun 01:29:39 PM 42.3542 -112.5447 346° North 348 400 36,000  Level Salt Lake Center
Sun 01:30:41 PM 42.4667 -112.5789 347° North 346 398 36,000  Level Salt Lake Center
Sun 01:31:42 PM 42.5600 -112.6078 347° North 345 397 36,000  Level Salt Lake Center
Sun 01:32:44 PM 42.6536 -112.6392 346° North 344 396 36,000  Level Salt Lake Center
Sun 01:33:46 PM 42.7503 -112.6689 347° North 346 398 36,000  Level Salt Lake Center
Sun 01:34:47 PM 42.8408 -112.6975 347° North 347 399 36,000  Level Salt Lake Center
Sun 01:35:49 PM 42.9458 -112.7311 347° North 348 400 36,000  Level Salt Lake Center
Sun 01:36:50 PM 43.0350 -112.7592 347° North 345 397 36,000  Level Salt Lake Center
Sun 01:37:52 PM 43.1408 -112.7933 347° North 348 400 36,000  Level Salt Lake Center
Sun 01:38:54 PM 43.2314 -112.8211 347° North 349 402 36,000  Level Salt Lake Center
Sun 01:39:55 PM 43.3358 -112.8556 347° North 347 399 36,000  Level Salt Lake Center
Sun 01:40:57 PM 43.4258 -112.8853 347° North 346 398 36,000  Level Salt Lake Center
Sun 01:41:59 PM 43.5169 -112.9136 347° North 349 402 36,000  Level Salt Lake Center
Sun 01:43:01 PM 43.6217 -112.9481 347° North 348 400 36,000  Level Salt Lake Center
Sun 01:44:02 PM 43.7122 -112.9786 346° North 349 402 36,000  Level Salt Lake Center
Sun 01:45:04 PM 43.8186 -113.0128 347° North 349 402 36,000  Level Salt Lake Center
Sun 01:46:06 PM 43.9086 -113.0425 347° North 348 400 36,000  Level Salt Lake Center
Sun 01:47:07 PM 43.9986 -113.0731 346° North 348 400 36,000  Level Salt Lake Center
Sun 01:48:09 PM 44.1044 -113.1072 347° North 349 402 36,000  Level Salt Lake Center
Sun 01:49:11 PM 44.1956 -113.1381 346° North 351 404 36,000  Level Salt Lake Center
Sun 01:50:13 PM 44.3017 -113.1739 346° North 351 404 36,000  Level Salt Lake Center
Sun 01:51:14 PM 44.3950 -113.2044 347° North 355 409 36,000  Level Salt Lake Center
Sun 01:52:16 PM 44.5011 -113.2408 346° North 354 407 36,000  Level Salt Lake Center
Sun 01:53:18 PM 44.5925 -113.2711 347° North 353 406 36,000  Level Salt Lake Center
Sun 01:54:20 PM 44.6839 -113.3019 347° North 353 406 36,000  Level Salt Lake Center
Sun 01:55:21 PM 44.7911 -113.3394 346° North 356 410 36,000  Level Salt Lake Center
Sun 01:56:23 PM 44.8836 -113.3708 346° North 358 412 36,000  Level Salt Lake Center
Sun 01:57:25 PM 44.9903 -113.4061 347° North 353 406 36,000  Level Salt Lake Center
Sun 01:58:27 PM 45.0833 -113.4386 346° North 357 411 36,000  Level Salt Lake Center
Sun 01:59:28 PM 45.1903 -113.4750 347° North 355 409 36,000  Level Salt Lake Center
Sun 02:00:30 PM 45.2833 -113.5072 346° North 357 411 36,000 -532 Level Salt Lake Center
Sun 02:01:32 PM 45.3775 -113.5406 346° North 359 413 34,900 -1,403 Descending Salt Lake Center
Sun 02:02:34 PM 45.4783 -113.5761 346° North 370 426 33,100 -2,226 Descending Salt Lake Center
Sun 02:03:36 PM 45.5956 -113.6167 346° North 378 435 30,300 -2,439 Descending Salt Lake Center
Sun 02:04:37 PM 45.7072 -113.6550 347° North 393 452 28,100 -2,049 Descending Salt Lake Center
Sun 02:05:39 PM 45.8158 -113.6928 346° North 400 460 26,100 -1,935 Descending Salt Lake Center
Sun 02:06:41 PM 45.9178 -113.7308 345° North 385 443 24,100 -1,935 Descending Salt Lake Center
Sun 02:07:43 PM 46.0172 -113.7656 346° North 373 429 22,100 -2,000 Descending Salt Lake Center
Sun 02:08:44 PM 46.1161 -113.7992 347° North 368 423 20,000 -2,098 Descending Salt Lake Center
Sun 02:09:46 PM 46.2233 -113.8389 346° North 358 412 17,800 -1,984 Descending Salt Lake Center
Sun 02:10:48 PM 46.3211 -113.8722 347° North 335 386 15,900 -1,355 Descending Salt Lake Center
Sun 02:11:50 PM 46.4042 -113.9056 345° North 313 360 15,000 -823 Descending Salt Lake Center
Sun 02:12:52 PM 46.4817 -113.9331 346° North 270 311 14,200 -1,171 Descending Salt Lake Center
Sun 02:13:53 PM 46.5556 -113.9589 346° North 273 314 12,600 -1,756 Descending Salt Lake Center
Sun 02:14:55 PM 46.6281 -113.9856 346° North 269 310 10,600 -1,742 Descending Salt Lake Center
Sun 02:15:57 PM 46.7003 -114.0106 347° North 249 287 9,000 -1,694 Descending Salt Lake Center
Sun 02:16:59 PM 46.7625 -114.0358 344° North 235 270 7,100 -1,403 Descending Salt Lake Center
Sun 02:18:01 PM 46.8264 -114.0406 357° North 213 245 6,100 -1,171 Descending Salt Lake Center
Sun 02:19:02 PM 46.8719 -114.0344 North 165 190 4,700 -1,171 Descending Salt Lake Center
Sun 02:20:04 PM 46.8986 -114.0622 325° Northwest 118 136 3,700 -677 Descending Salt Lake Center
Sun 02:21:06 PM 46.9172 -114.0944 310° West 110 127 3,300 -387 Descending Salt Lake Center

Login

Don't have an account? Register now (free) for customized features, flight alerts, and more!